createdAt,value
2023-01-07T00:00:02.003Z,94410.94
2023-01-07T00:01:19.491Z,94418.97
2023-01-07T00:02:16.164Z,94421.56
2023-01-07T00:03:12.754Z,94421.50
2023-01-07T00:04:12.751Z,94413.94
2023-01-07T00:05:09.863Z,94429.75
2023-01-07T00:06:10.076Z,94431.41
2023-01-07T00:07:06.818Z,94429.34
2023-01-07T00:08:03.544Z,94415.47
2023-01-07T00:09:01.433Z,94432.63
2023-01-07T00:09:58.113Z,94418.72
2023-01-07T00:10:54.795Z,94421.56
2023-01-07T00:11:51.412Z,94410.25
2023-01-07T00:12:48.012Z,94419.44
2023-01-07T00:13:44.937Z,94408.63
2023-01-07T00:14:41.585Z,94412.56
2023-01-07T00:15:38.183Z,94415.03
2023-01-07T00:16:36.124Z,94403.78
2023-01-07T00:17:32.710Z,94416.13
2023-01-07T00:18:29.347Z,94412.97
2023-01-07T00:19:25.964Z,94411.41
2023-01-07T00:20:22.538Z,94397.38
2023-01-07T00:21:21.288Z,94416.22
2023-01-07T00:22:17.960Z,94399.63
2023-01-07T00:23:14.573Z,94411.66
2023-01-07T00:24:12.138Z,94404.44
2023-01-07T00:25:08.984Z,94406.06
2023-01-07T00:26:31.624Z,94407.66
2023-01-07T00:27:28.184Z,94402.34
2023-01-07T00:28:24.877Z,94403.28
2023-01-07T00:29:21.526Z,94413.50
2023-01-07T00:30:18.196Z,94384.84
2023-01-07T00:31:14.930Z,94418.66
2023-01-07T00:32:11.537Z,94378.63
2023-01-07T00:33:11.186Z,94415.97
2023-01-07T00:34:09.442Z,94412.88
2023-01-07T00:35:21.539Z,94403.75
2023-01-07T00:36:19.848Z,94415.16
2023-01-07T00:37:34.843Z,94403.78
2023-01-07T00:38:31.846Z,94370.22
2023-01-07T00:39:28.455Z,94371.41
2023-01-07T00:40:25.349Z,94416.84
2023-01-07T00:41:22.253Z,94422.50
2023-01-07T00:42:37.200Z,94387.38
2023-01-07T00:43:33.937Z,94424.91
2023-01-07T00:44:31.130Z,94409.13
2023-01-07T00:45:34.167Z,94427.31
2023-01-07T00:46:30.906Z,94364.13
2023-01-07T00:47:27.611Z,94414.66
2023-01-07T00:48:24.873Z,94403.25
2023-01-07T00:49:24.473Z,94396.84
2023-01-07T00:50:22.436Z,94408.59
2023-01-07T00:51:19.755Z,94418.03
2023-01-07T00:52:16.330Z,94425.63
2023-01-07T00:53:13.264Z,94426.38
2023-01-07T00:54:09.821Z,94424.31
2023-01-07T00:55:07.130Z,94426.78
2023-01-07T00:56:04.117Z,94420.03
2023-01-07T00:57:00.882Z,94383.16
2023-01-07T00:57:58.109Z,94427.16
2023-01-07T00:58:54.674Z,94426.22
2023-01-07T00:59:51.424Z,94428.72
2023-01-07T01:00:48.407Z,94429.59
2023-01-07T01:01:45.229Z,94419.44
2023-01-07T01:02:42.164Z,94427.03
2023-01-07T01:03:39.567Z,94421.53
2023-01-07T01:04:36.273Z,94386.59
2023-01-07T01:05:32.855Z,94415.97
2023-01-07T01:06:29.418Z,94432.84
2023-01-07T01:07:25.992Z,94433.31
2023-01-07T01:08:23.777Z,94429.06
2023-01-07T01:09:21.448Z,94388.72
2023-01-07T01:10:20.382Z,94424.28
2023-01-07T01:11:17.415Z,94403.13
2023-01-07T01:12:13.998Z,94383.16
2023-01-07T01:13:14.937Z,94427.41
2023-01-07T01:14:12.386Z,94361.41
2023-01-07T01:15:14.405Z,94424.13
2023-01-07T01:16:14.772Z,94425.28
2023-01-07T01:17:11.471Z,94434.97
2023-01-07T01:18:08.048Z,94436.31
2023-01-07T01:19:04.691Z,94431.28
2023-01-07T01:20:01.571Z,94435.88
2023-01-07T01:21:03.739Z,94435.19
2023-01-07T01:22:00.343Z,94425.78
2023-01-07T01:22:57.031Z,94319.25
2023-01-07T01:23:53.850Z,94433.19
2023-01-07T01:24:51.371Z,94423.75
2023-01-07T01:25:48.082Z,94393.47
2023-01-07T01:26:44.836Z,94421.22
2023-01-07T01:27:41.736Z,94424.16
2023-01-07T01:28:39.130Z,94428.66
2023-01-07T01:29:35.825Z,94427.41
2023-01-07T01:30:32.446Z,94406.78
2023-01-07T01:31:29.206Z,94406.97
2023-01-07T01:32:26.011Z,94382.06
2023-01-07T01:33:22.591Z,94422.66
2023-01-07T01:34:19.345Z,94390.44
2023-01-07T01:35:16.032Z,94429.88
2023-01-07T01:36:13.397Z,94424.34
2023-01-07T01:37:10.087Z,94417.22
2023-01-07T01:38:06.721Z,94413.28
2023-01-07T01:39:04.951Z,94418.16
2023-01-07T01:40:04.162Z,94383.88
2023-01-07T01:41:00.879Z,94416.63
2023-01-07T01:41:57.481Z,94410.09
2023-01-07T01:42:54.139Z,94407.72
2023-01-07T01:43:51.156Z,94402.41
2023-01-07T01:44:53.727Z,94411.78
2023-01-07T01:45:50.420Z,94419.38
2023-01-07T01:46:47.038Z,94419.16
2023-01-07T01:47:56.718Z,94416.31
2023-01-07T01:48:59.299Z,94395.28
2023-01-07T01:50:01.948Z,94421.50
2023-01-07T01:50:58.729Z,94296.91
2023-01-07T01:52:09.983Z,94372.63
2023-01-07T01:53:15.398Z,94422.09
2023-01-07T01:54:16.731Z,94409.25
2023-01-07T01:55:18.231Z,94419.31
2023-01-07T01:56:20.034Z,94387.38
2023-01-07T01:57:18.976Z,94417.25
2023-01-07T01:58:20.416Z,94383.53
2023-01-07T01:59:25.538Z,94378.06
2023-01-07T02:00:22.386Z,94321.00
2023-01-07T02:01:19.188Z,94399.53
2023-01-07T02:02:20.392Z,94404.91
2023-01-07T02:03:19.864Z,94410.44
2023-01-07T02:04:21.201Z,94403.13
2023-01-07T02:05:18.438Z,94368.72
2023-01-07T02:06:22.971Z,94405.25
2023-01-07T02:07:19.750Z,94411.84
2023-01-07T02:08:22.181Z,94401.63
2023-01-07T02:09:18.795Z,94412.16
2023-01-07T02:10:21.760Z,94411.63
2023-01-07T02:11:41.121Z,94406.19
2023-01-07T02:12:40.576Z,94412.47
2023-01-07T02:13:55.711Z,94404.38
2023-01-07T02:15:07.598Z,94407.72
2023-01-07T02:16:10.450Z,94398.03
2023-01-07T02:17:18.912Z,94402.50
2023-01-07T02:18:39.888Z,94404.66
2023-01-07T02:19:39.149Z,94402.72
2023-01-07T02:20:35.779Z,94401.44
2023-01-07T02:22:01.219Z,94398.53
2023-01-07T02:23:26.976Z,94401.31
2023-01-07T02:24:45.267Z,94398.53
2023-01-07T02:26:12.700Z,94402.59
2023-01-07T02:27:42.296Z,94398.69
2023-01-07T02:28:59.489Z,94403.06
2023-01-07T02:30:07.932Z,94410.53
2023-01-07T02:31:25.149Z,94375.53
2023-01-07T02:32:30.792Z,94409.75
2023-01-07T02:33:46.279Z,94407.66
2023-01-07T02:35:07.280Z,94405.78
2023-01-07T02:36:12.519Z,94407.41
2023-01-07T02:37:39.170Z,94407.66
2023-01-07T02:38:44.793Z,94405.41
2023-01-07T02:40:09.016Z,94414.34
2023-01-07T02:41:42.719Z,94409.97
2023-01-07T02:43:02.639Z,94407.03
2023-01-07T02:44:07.257Z,94403.38
2023-01-07T02:45:27.252Z,94354.97
2023-01-07T02:46:45.725Z,94411.41
2023-01-07T02:47:49.758Z,94405.66
2023-01-07T02:48:47.061Z,94407.53
2023-01-07T02:49:47.516Z,94406.28
2023-01-07T02:50:44.235Z,94372.47
2023-01-07T02:51:42.916Z,94333.66
2023-01-07T02:52:39.670Z,94410.31
2023-01-07T02:53:36.726Z,94403.25
2023-01-07T02:54:33.389Z,94408.94
2023-01-07T02:56:07.342Z,94402.69
2023-01-07T02:57:45.516Z,94416.28
2023-01-07T02:59:26.333Z,94390.75
2023-01-07T03:00:31.226Z,94391.19
2023-01-07T03:01:27.909Z,94418.84
2023-01-07T03:02:45.584Z,94359.63
2023-01-07T03:03:57.828Z,94418.06
2023-01-07T03:05:18.903Z,94409.16
2023-01-07T03:06:18.293Z,94413.44
2023-01-07T03:07:33.078Z,94349.66
2023-01-07T03:09:14.930Z,94402.84
2023-01-07T03:10:23.825Z,94407.44
2023-01-07T03:11:23.766Z,94408.28
2023-01-07T03:12:30.231Z,94389.63
2023-01-07T03:13:58.938Z,94407.72
2023-01-07T03:15:17.403Z,94405.22
2023-01-07T03:16:27.787Z,94378.34
2023-01-07T03:17:34.029Z,94403.25
2023-01-07T03:18:35.831Z,94405.88
2023-01-07T03:19:36.440Z,94403.75
2023-01-07T03:20:37.772Z,94411.72
2023-01-07T03:21:36.118Z,94378.91
2023-01-07T03:22:36.260Z,94375.22
2023-01-07T03:23:35.892Z,94402.59
2023-01-07T03:24:33.693Z,94360.75
2023-01-07T03:25:32.241Z,94409.53
2023-01-07T03:26:33.480Z,94407.91
2023-01-07T03:27:33.524Z,94404.53
2023-01-07T03:28:33.160Z,94408.50
2023-01-07T03:29:32.291Z,94402.63
2023-01-07T03:30:30.179Z,94411.38
2023-01-07T03:31:28.485Z,94408.06
2023-01-07T03:32:30.306Z,94411.44
2023-01-07T03:33:35.530Z,94411.00
2023-01-07T03:34:34.353Z,94405.53
2023-01-07T03:35:32.962Z,94411.34
2023-01-07T03:36:36.139Z,94407.63
2023-01-07T03:37:34.418Z,94368.88
2023-01-07T03:38:31.307Z,94356.81
2023-01-07T03:39:30.763Z,94406.00
2023-01-07T03:40:27.661Z,94408.53
2023-01-07T03:41:43.222Z,94391.50
2023-01-07T03:42:41.679Z,94406.63
2023-01-07T03:43:38.292Z,94413.69
2023-01-07T03:44:35.244Z,94382.91
2023-01-07T03:45:32.169Z,94411.28
2023-01-07T03:46:29.199Z,94415.22
2023-01-07T03:47:28.511Z,94412.94
2023-01-07T03:48:25.220Z,94414.91
2023-01-07T03:49:21.803Z,94414.47
2023-01-07T03:50:19.507Z,94412.50
2023-01-07T03:51:16.201Z,94405.53
2023-01-07T03:52:12.897Z,94411.59
2023-01-07T03:53:09.620Z,94412.13
2023-01-07T03:54:06.282Z,94409.16
2023-01-07T03:55:05.117Z,94408.75
2023-01-07T03:56:01.753Z,94413.69
2023-01-07T03:56:58.463Z,94408.81
2023-01-07T03:57:56.045Z,94415.44
2023-01-07T03:58:52.739Z,94419.34
2023-01-07T03:59:49.363Z,94417.31
2023-01-07T04:00:46.004Z,94411.19
2023-01-07T04:01:42.750Z,94378.81
2023-01-07T04:02:39.525Z,94417.53
2023-01-07T04:03:36.158Z,94419.00
2023-01-07T04:04:33.069Z,94385.31
2023-01-07T04:05:29.776Z,94407.81
2023-01-07T04:06:26.459Z,94414.78
2023-01-07T04:07:23.157Z,94383.59
2023-01-07T04:08:19.827Z,94417.75
2023-01-07T04:09:18.896Z,94382.94
2023-01-07T04:10:15.599Z,94391.41
2023-01-07T04:11:12.223Z,94420.94
2023-01-07T04:12:09.308Z,94386.84
2023-01-07T04:13:05.930Z,94422.31
2023-01-07T04:14:02.854Z,94378.31
2023-01-07T04:15:00.810Z,94414.59
2023-01-07T04:15:57.388Z,94421.56
2023-01-07T04:16:54.128Z,94426.22
2023-01-07T04:17:50.781Z,94427.81
2023-01-07T04:18:47.488Z,94418.44
2023-01-07T04:19:44.240Z,94392.97
2023-01-07T04:20:41.053Z,94420.50
2023-01-07T04:21:37.860Z,94394.09
2023-01-07T04:22:34.527Z,94407.41
2023-01-07T04:23:31.216Z,94373.34
2023-01-07T04:24:27.853Z,94426.91
2023-01-07T04:25:24.585Z,94426.28
2023-01-07T04:26:21.201Z,94433.28
2023-01-07T04:27:17.939Z,94409.13
2023-01-07T04:28:14.539Z,94432.94
2023-01-07T04:29:11.653Z,94405.00
2023-01-07T04:30:08.798Z,94424.25
2023-01-07T04:31:05.580Z,94430.13
2023-01-07T04:32:02.683Z,94405.44
2023-01-07T04:32:59.838Z,94431.34
2023-01-07T04:33:56.497Z,94409.19
2023-01-07T04:34:53.155Z,94436.53
2023-01-07T04:35:49.776Z,94432.59
2023-01-07T04:36:46.520Z,94438.97
2023-01-07T04:37:43.109Z,94442.84
2023-01-07T04:38:39.813Z,94431.59
2023-01-07T04:39:36.624Z,94418.84
2023-01-07T04:40:33.263Z,94448.84
2023-01-07T04:41:29.967Z,94453.25
2023-01-07T04:42:26.687Z,94451.91
2023-01-07T04:43:23.499Z,94446.13
2023-01-07T04:44:20.221Z,94443.47
2023-01-07T04:45:16.850Z,94438.91
2023-01-07T04:46:13.587Z,94443.47
2023-01-07T04:47:10.250Z,94450.34
2023-01-07T04:48:07.131Z,94437.59
2023-01-07T04:49:03.899Z,94455.44
2023-01-07T04:50:00.705Z,94447.06
2023-01-07T04:50:57.403Z,94414.81
2023-01-07T04:51:54.116Z,94453.09
2023-01-07T04:52:50.867Z,94432.91
2023-01-07T04:53:47.779Z,94442.06
2023-01-07T04:54:44.403Z,94459.13
2023-01-07T04:55:41.624Z,94443.69
2023-01-07T04:56:38.323Z,94453.63
2023-01-07T04:57:34.879Z,94455.97
2023-01-07T04:58:31.651Z,94450.19
2023-01-07T04:59:28.354Z,94436.00
2023-01-07T05:00:24.945Z,94445.22
2023-01-07T05:01:21.765Z,94450.19
2023-01-07T05:02:18.495Z,94442.63
2023-01-07T05:03:15.347Z,94447.34
2023-01-07T05:04:12.076Z,94447.09
2023-01-07T05:05:09.438Z,94453.34
2023-01-07T05:06:06.367Z,94451.53
2023-01-07T05:07:03.279Z,94455.22
2023-01-07T05:07:59.887Z,94421.66
2023-01-07T05:08:56.526Z,94454.19
2023-01-07T05:09:53.324Z,94446.88
2023-01-07T05:10:50.472Z,94449.47
2023-01-07T05:11:47.098Z,94435.81
2023-01-07T05:12:43.691Z,94452.63
2023-01-07T05:13:40.235Z,94445.28
2023-01-07T05:14:36.945Z,94443.69
2023-01-07T05:15:33.960Z,94441.06
2023-01-07T05:16:30.676Z,94456.81
2023-01-07T05:17:27.352Z,94461.00
2023-01-07T05:18:23.949Z,94453.94
2023-01-07T05:19:21.886Z,94453.94
2023-01-07T05:20:18.654Z,94358.47
2023-01-07T05:21:15.304Z,94454.72
2023-01-07T05:22:12.039Z,94437.69
2023-01-07T05:23:08.864Z,94390.75
2023-01-07T05:24:05.609Z,94463.63
2023-01-07T05:25:02.260Z,94449.22
2023-01-07T05:25:58.903Z,94453.16
2023-01-07T05:26:55.718Z,94448.16
2023-01-07T05:27:52.412Z,94453.66
2023-01-07T05:28:48.999Z,94451.28
2023-01-07T05:29:45.565Z,94456.50
2023-01-07T05:30:42.286Z,94462.81
2023-01-07T05:31:39.021Z,94458.53
2023-01-07T05:32:35.830Z,94458.00
2023-01-07T05:33:32.543Z,94418.38
2023-01-07T05:34:29.470Z,94449.22
2023-01-07T05:35:26.204Z,94452.00
2023-01-07T05:36:22.866Z,94411.38
2023-01-07T05:37:19.495Z,94453.84
2023-01-07T05:38:16.247Z,94456.84
2023-01-07T05:39:12.851Z,94459.19
2023-01-07T05:40:10.451Z,94416.28
2023-01-07T05:41:08.539Z,94442.88
2023-01-07T05:42:05.207Z,94465.47
2023-01-07T05:43:01.806Z,94445.50
2023-01-07T05:43:58.443Z,94428.75
2023-01-07T05:44:55.155Z,94459.94
2023-01-07T05:45:51.850Z,94464.66
2023-01-07T05:46:48.522Z,94455.22
2023-01-07T05:47:45.096Z,94454.44
2023-01-07T05:48:41.988Z,94465.94
2023-01-07T05:49:38.731Z,94463.78
2023-01-07T05:50:35.462Z,94461.00
2023-01-07T05:51:32.219Z,94468.13
2023-01-07T05:52:28.821Z,94459.19
2023-01-07T05:53:25.450Z,94456.50
2023-01-07T05:54:22.017Z,94457.16
2023-01-07T05:55:18.817Z,94465.22
2023-01-07T05:56:15.409Z,94427.53
2023-01-07T05:57:12.031Z,94452.78
2023-01-07T05:58:09.176Z,94410.25
2023-01-07T05:59:06.029Z,94455.56
2023-01-07T06:00:04.167Z,94446.19
2023-01-07T06:01:00.944Z,94465.91
2023-01-07T06:01:57.723Z,94463.31
2023-01-07T06:02:54.428Z,94448.13
2023-01-07T06:03:51.075Z,94405.94
2023-01-07T06:04:47.789Z,94455.75
2023-01-07T06:05:44.555Z,94454.72
2023-01-07T06:06:41.383Z,94417.47
2023-01-07T06:07:38.156Z,94459.72
2023-01-07T06:08:39.251Z,94445.53
2023-01-07T06:09:35.830Z,94437.91
2023-01-07T06:10:32.702Z,94477.28
2023-01-07T06:11:29.352Z,94420.09
2023-01-07T06:12:26.039Z,94463.41
2023-01-07T06:13:22.683Z,94470.72
2023-01-07T06:14:19.426Z,94450.25
2023-01-07T06:15:16.122Z,94443.69
2023-01-07T06:16:14.277Z,94453.91
2023-01-07T06:17:11.018Z,94475.66
2023-01-07T06:18:07.714Z,94473.84
2023-01-07T06:19:04.340Z,94454.44
2023-01-07T06:20:01.020Z,94467.78
2023-01-07T06:20:58.042Z,94467.78
2023-01-07T06:21:54.634Z,94467.72
2023-01-07T06:22:51.355Z,94470.50
2023-01-07T06:23:47.929Z,94463.84
2023-01-07T06:24:44.515Z,94469.56
2023-01-07T06:25:41.115Z,94478.66
2023-01-07T06:26:37.737Z,94465.19
2023-01-07T06:27:34.797Z,94463.13
2023-01-07T06:28:31.534Z,94473.94
2023-01-07T06:29:28.195Z,94474.50
2023-01-07T06:30:24.933Z,94469.09
2023-01-07T06:31:21.640Z,94473.31
2023-01-07T06:32:18.355Z,94472.47
2023-01-07T06:33:16.367Z,94475.31
2023-01-07T06:34:13.122Z,94471.09
2023-01-07T06:35:11.493Z,94477.97
2023-01-07T06:36:08.402Z,94475.84
2023-01-07T06:37:05.059Z,94470.38
2023-01-07T06:38:01.743Z,94475.09
2023-01-07T06:38:58.370Z,94447.31
2023-01-07T06:39:55.084Z,94455.38
2023-01-07T06:40:51.696Z,94476.81
2023-01-07T06:41:48.326Z,94474.44
2023-01-07T06:42:45.000Z,94467.84
2023-01-07T06:43:41.601Z,94481.03
2023-01-07T06:44:38.751Z,94483.41
2023-01-07T06:45:35.483Z,94483.50
2023-01-07T06:46:32.210Z,94484.75
2023-01-07T06:47:28.927Z,94487.16
2023-01-07T06:48:25.764Z,94488.19
2023-01-07T06:49:22.467Z,94488.69
2023-01-07T06:50:19.484Z,94485.25
2023-01-07T06:51:16.153Z,94482.09
2023-01-07T06:52:12.838Z,94491.25
2023-01-07T06:53:09.569Z,94493.09
2023-01-07T06:54:06.315Z,94443.84
2023-01-07T06:55:05.939Z,94480.00
2023-01-07T06:56:03.925Z,94488.09
2023-01-07T06:57:00.572Z,94486.59
2023-01-07T06:57:57.142Z,94437.31
2023-01-07T06:58:53.774Z,94458.00
2023-01-07T06:59:50.433Z,94475.28
2023-01-07T07:00:47.091Z,94462.66
2023-01-07T07:01:46.393Z,94486.94
2023-01-07T07:02:43.381Z,94487.56
2023-01-07T07:03:40.132Z,94482.81
2023-01-07T07:04:36.843Z,94480.72
2023-01-07T07:05:34.853Z,94486.94
2023-01-07T07:06:31.505Z,94461.38
2023-01-07T07:07:28.208Z,94482.88
2023-01-07T07:08:24.883Z,94489.69
2023-01-07T07:09:21.499Z,94487.00
2023-01-07T07:10:18.235Z,94481.16
2023-01-07T07:11:15.034Z,94488.81
2023-01-07T07:12:12.424Z,94500.16
2023-01-07T07:13:09.111Z,94459.41
2023-01-07T07:14:05.743Z,94486.81
2023-01-07T07:15:02.398Z,94486.56
2023-01-07T07:15:59.024Z,94491.97
2023-01-07T07:16:55.676Z,94492.25
2023-01-07T07:17:52.453Z,94490.28
2023-01-07T07:18:49.127Z,94491.50
2023-01-07T07:19:45.796Z,94491.22
2023-01-07T07:20:42.360Z,94491.94
2023-01-07T07:21:38.993Z,94496.72
2023-01-07T07:22:35.635Z,94487.06
2023-01-07T07:23:32.291Z,94462.25
2023-01-07T07:24:28.940Z,94495.75
2023-01-07T07:25:25.598Z,94492.50
2023-01-07T07:26:22.198Z,94449.81
2023-01-07T07:27:18.837Z,94496.22
2023-01-07T07:28:15.453Z,94470.13
2023-01-07T07:29:12.237Z,94410.13
2023-01-07T07:30:09.264Z,94494.47
2023-01-07T07:31:06.079Z,94484.75
2023-01-07T07:32:03.269Z,94481.09
2023-01-07T07:33:04.450Z,94467.19
2023-01-07T07:34:01.135Z,94488.13
2023-01-07T07:34:57.744Z,94493.72
2023-01-07T07:35:55.268Z,94498.38
2023-01-07T07:36:52.159Z,94485.94
2023-01-07T07:37:48.760Z,94490.31
2023-01-07T07:38:45.348Z,94490.84
2023-01-07T07:39:41.992Z,94487.00
2023-01-07T07:40:38.661Z,94480.22
2023-01-07T07:41:35.324Z,94470.38
2023-01-07T07:42:32.533Z,94482.38
2023-01-07T07:43:49.223Z,94491.72
2023-01-07T07:44:45.885Z,94494.94
2023-01-07T07:45:43.182Z,94490.56
2023-01-07T07:46:41.365Z,94492.38
2023-01-07T07:47:38.805Z,94475.66
2023-01-07T07:48:35.467Z,94490.34
2023-01-07T07:49:32.558Z,94436.13
2023-01-07T07:50:29.199Z,94492.28
2023-01-07T07:51:25.924Z,94484.91
2023-01-07T07:52:22.677Z,94474.13
2023-01-07T07:53:20.438Z,94489.22
2023-01-07T07:54:17.022Z,94476.75
2023-01-07T07:55:20.150Z,94486.63
2023-01-07T07:56:22.590Z,94436.63
2023-01-07T07:57:19.316Z,94491.41
2023-01-07T07:58:16.036Z,94472.16
2023-01-07T07:59:12.699Z,94481.13
2023-01-07T08:00:09.969Z,94491.72
2023-01-07T08:01:06.657Z,94493.19
2023-01-07T08:02:03.378Z,94478.75
2023-01-07T08:03:00.315Z,94459.38
2023-01-07T08:03:56.947Z,94496.69
2023-01-07T08:04:53.683Z,94499.34
2023-01-07T08:05:50.266Z,94489.69
2023-01-07T08:06:47.058Z,94492.66
2023-01-07T08:07:43.715Z,94498.09
2023-01-07T08:08:40.420Z,94496.38
2023-01-07T08:09:37.153Z,94497.59
2023-01-07T08:10:33.795Z,94500.13
2023-01-07T08:11:30.428Z,94488.72
2023-01-07T08:12:27.037Z,94479.19
2023-01-07T08:13:24.001Z,94449.72
2023-01-07T08:14:20.731Z,94470.75
2023-01-07T08:15:17.665Z,94454.44
2023-01-07T08:16:14.353Z,94492.47
2023-01-07T08:17:11.048Z,94491.97
2023-01-07T08:18:10.084Z,94498.31
2023-01-07T08:19:06.899Z,94496.66
2023-01-07T08:20:04.733Z,94490.41
2023-01-07T08:21:01.622Z,94496.56
2023-01-07T08:21:58.309Z,94487.44
2023-01-07T08:22:55.114Z,94491.06
2023-01-07T08:23:51.706Z,94497.53
2023-01-07T08:24:48.287Z,94496.84
2023-01-07T08:25:44.918Z,94499.41
2023-01-07T08:26:41.734Z,94495.63
2023-01-07T08:27:38.414Z,94491.25
2023-01-07T08:28:35.297Z,94494.97
2023-01-07T08:29:31.938Z,94495.13
2023-01-07T08:30:29.628Z,94449.69
2023-01-07T08:31:26.308Z,94497.50
2023-01-07T08:32:23.119Z,94489.97
2023-01-07T08:33:19.859Z,94464.81
2023-01-07T08:34:16.743Z,94494.59
2023-01-07T08:35:13.705Z,94499.19
2023-01-07T08:36:22.026Z,94469.03
2023-01-07T08:37:19.893Z,94496.66
2023-01-07T08:38:16.637Z,94503.31
2023-01-07T08:39:13.336Z,94494.09
2023-01-07T08:40:11.119Z,94504.81
2023-01-07T08:41:07.745Z,94499.41
2023-01-07T08:42:04.554Z,94502.16
2023-01-07T08:43:02.697Z,94499.13
2023-01-07T08:43:59.343Z,94502.25
2023-01-07T08:44:56.403Z,94471.78
2023-01-07T08:45:53.477Z,94495.09
2023-01-07T08:46:50.140Z,94494.59
2023-01-07T08:47:50.255Z,94496.94
2023-01-07T08:48:46.856Z,94468.22
2023-01-07T08:49:43.503Z,94437.19
2023-01-07T08:50:40.254Z,94503.28
2023-01-07T08:51:37.365Z,94503.75
2023-01-07T08:52:34.030Z,94491.63
2023-01-07T08:53:30.637Z,94489.47
2023-01-07T08:54:27.956Z,94496.50
2023-01-07T08:55:25.220Z,94452.16
2023-01-07T08:56:22.806Z,94488.28
2023-01-07T08:57:19.651Z,94486.19
2023-01-07T08:58:16.302Z,94481.06
2023-01-07T08:59:13.128Z,94485.69
2023-01-07T09:00:10.552Z,94480.97
2023-01-07T09:01:08.278Z,94433.56
2023-01-07T09:02:05.124Z,94474.31
2023-01-07T09:03:02.900Z,94442.47
2023-01-07T09:03:59.491Z,94483.03
2023-01-07T09:04:56.153Z,94363.19
2023-01-07T09:05:52.809Z,94478.06
2023-01-07T09:06:49.489Z,94476.25
2023-01-07T09:07:46.175Z,94435.16
2023-01-07T09:08:42.846Z,94356.22
2023-01-07T09:09:39.727Z,94474.78
2023-01-07T09:10:36.487Z,94438.34
2023-01-07T09:11:33.192Z,94385.66
2023-01-07T09:12:30.155Z,94443.63
2023-01-07T09:13:26.872Z,94473.38
2023-01-07T09:14:23.605Z,94471.81
2023-01-07T09:15:20.298Z,94470.47
2023-01-07T09:16:16.857Z,94467.78
2023-01-07T09:17:13.652Z,94456.16
2023-01-07T09:18:10.708Z,94469.91
2023-01-07T09:19:07.658Z,94468.50
2023-01-07T09:20:05.858Z,94447.47
2023-01-07T09:21:02.636Z,94459.19
2023-01-07T09:21:59.353Z,94461.06
2023-01-07T09:22:55.948Z,94460.69
2023-01-07T09:23:52.670Z,94457.81
2023-01-07T09:24:49.393Z,94457.78
2023-01-07T09:25:46.139Z,94456.56
2023-01-07T09:26:43.759Z,94448.63
2023-01-07T09:27:41.040Z,94459.13
2023-01-07T09:28:37.791Z,94450.16
2023-01-07T09:29:34.447Z,94452.81
2023-01-07T09:30:31.118Z,94415.88
2023-01-07T09:31:27.892Z,94451.09
2023-01-07T09:32:26.483Z,94448.88
2023-01-07T09:33:23.205Z,94416.53
2023-01-07T09:34:19.927Z,94412.09
2023-01-07T09:35:16.793Z,94438.47
2023-01-07T09:36:13.629Z,94445.44
2023-01-07T09:37:10.409Z,94441.94
2023-01-07T09:38:07.077Z,94439.97
2023-01-07T09:39:03.830Z,94435.34
2023-01-07T09:40:03.679Z,94434.81
2023-01-07T09:41:00.304Z,94425.63
2023-01-07T09:42:37.862Z,94432.19
2023-01-07T09:43:59.502Z,94420.38
2023-01-07T09:45:17.033Z,94421.56
2023-01-07T09:46:16.493Z,94424.72
2023-01-07T09:47:17.450Z,94359.66
2023-01-07T09:48:24.913Z,94420.81
2023-01-07T09:49:25.912Z,94411.94
2023-01-07T09:50:25.539Z,94415.19
2023-01-07T09:51:27.482Z,94393.31
2023-01-07T09:52:36.935Z,94407.06
2023-01-07T09:53:41.178Z,94383.47
2023-01-07T09:54:39.716Z,94403.03
2023-01-07T09:56:11.816Z,94396.03
2023-01-07T09:56:57.015Z,94400.03
2023-01-07T09:57:53.721Z,94383.00
2023-01-07T09:58:51.441Z,94368.16
2023-01-07T09:59:48.114Z,94400.00
2023-01-07T10:01:12.657Z,94386.91
2023-01-07T10:02:34.186Z,94395.81
2023-01-07T10:03:43.235Z,94395.03
2023-01-07T10:04:42.588Z,94388.88
2023-01-07T10:05:48.116Z,94387.44
2023-01-07T10:07:08.837Z,94391.53
2023-01-07T10:08:29.104Z,94386.84
2023-01-07T10:09:47.462Z,94377.88
2023-01-07T10:10:50.989Z,94381.75
2023-01-07T10:12:06.169Z,94349.38
2023-01-07T10:13:42.777Z,94363.13
2023-01-07T10:14:46.040Z,94375.72
2023-01-07T10:15:57.923Z,94372.50
2023-01-07T10:17:05.008Z,94369.88
2023-01-07T10:18:12.501Z,94379.91
2023-01-07T10:19:09.202Z,94383.41
2023-01-07T10:20:21.267Z,94374.44
2023-01-07T10:21:43.946Z,94367.41
2023-01-07T10:22:51.197Z,94366.97
2023-01-07T10:23:59.275Z,94288.91
2023-01-07T10:25:02.387Z,94347.19
2023-01-07T10:26:01.564Z,94365.91
2023-01-07T10:27:03.538Z,94378.59
2023-01-07T10:28:06.642Z,94329.75
2023-01-07T10:29:26.621Z,94362.88
2023-01-07T10:30:27.021Z,94361.28
2023-01-07T10:31:27.432Z,94359.91
2023-01-07T10:32:30.914Z,94362.06
2023-01-07T10:33:31.268Z,94353.59
2023-01-07T10:34:35.886Z,94336.72
2023-01-07T10:35:35.124Z,94368.97
2023-01-07T10:36:55.126Z,94360.91
2023-01-07T10:37:53.259Z,94331.63
2023-01-07T10:38:59.900Z,94355.50
2023-01-07T10:40:17.567Z,94348.41
2023-01-07T10:41:23.850Z,94347.25
2023-01-07T10:42:33.171Z,94345.06
2023-01-07T10:43:45.293Z,94339.84
2023-01-07T10:44:56.061Z,94342.22
2023-01-07T10:45:58.797Z,94337.13
2023-01-07T10:47:04.243Z,94336.91
2023-01-07T10:48:16.028Z,94331.09
2023-01-07T10:49:31.147Z,94338.78
2023-01-07T10:50:30.621Z,94337.34
2023-01-07T10:51:48.081Z,94326.25
2023-01-07T10:53:02.715Z,94318.59
2023-01-07T10:54:21.091Z,94328.63
2023-01-07T10:55:34.694Z,94323.34
2023-01-07T10:56:36.728Z,94293.03
2023-01-07T10:57:34.316Z,94314.78
2023-01-07T10:58:39.393Z,94322.59
2023-01-07T10:59:37.090Z,94300.47
2023-01-07T11:00:33.799Z,94308.50
2023-01-07T11:01:37.293Z,94309.03
2023-01-07T11:02:34.120Z,94304.81
2023-01-07T11:03:31.199Z,94277.78
2023-01-07T11:04:27.892Z,94297.66
2023-01-07T11:05:37.415Z,94301.50
2023-01-07T11:06:49.393Z,94302.88
2023-01-07T11:07:51.115Z,94258.38
2023-01-07T11:08:48.188Z,94258.69
2023-01-07T11:09:47.499Z,94302.94
2023-01-07T11:10:44.170Z,94278.56
2023-01-07T11:11:42.420Z,94289.97
2023-01-07T11:12:56.291Z,94285.97
2023-01-07T11:14:18.518Z,94291.00
2023-01-07T11:15:50.937Z,94284.56
2023-01-07T11:16:55.259Z,94279.50
2023-01-07T11:18:11.600Z,94279.44
2023-01-07T11:19:10.798Z,94281.84
2023-01-07T11:20:08.344Z,94276.16
2023-01-07T11:21:05.117Z,94276.75
2023-01-07T11:22:03.062Z,94251.56
2023-01-07T11:22:59.842Z,94272.66
2023-01-07T11:23:56.598Z,94255.22
2023-01-07T11:24:54.537Z,94229.09
2023-01-07T11:25:51.244Z,94275.38
2023-01-07T11:26:49.258Z,94268.00
2023-01-07T11:27:46.269Z,94266.56
2023-01-07T11:28:50.876Z,94264.63
2023-01-07T11:30:28.129Z,94263.22
2023-01-07T11:31:57.141Z,94263.34
2023-01-07T11:33:03.771Z,94268.38
2023-01-07T11:34:04.690Z,94252.72
2023-01-07T11:35:08.059Z,94227.31
2023-01-07T11:36:05.819Z,94261.19
2023-01-07T11:37:03.370Z,94244.78
2023-01-07T11:38:02.095Z,94241.00
2023-01-07T11:39:10.013Z,94261.59
2023-01-07T11:40:12.582Z,94260.00
2023-01-07T11:41:25.179Z,94249.47
2023-01-07T11:42:39.882Z,94253.97
2023-01-07T11:43:40.715Z,94251.53
2023-01-07T11:44:37.314Z,94252.19
2023-01-07T11:46:19.954Z,94253.09
2023-01-07T11:47:15.910Z,94239.75
2023-01-07T11:48:24.198Z,94246.09